createdAt,value
2023-04-10T00:00:38.160Z,9.15
2023-04-10T00:03:06.005Z,9.09
2023-04-10T00:05:33.301Z,9.05
2023-04-10T00:08:00.418Z,9.05
2023-04-10T00:10:29.411Z,9.07
2023-04-10T00:12:56.475Z,9.04
2023-04-10T00:15:23.597Z,9.03
2023-04-10T00:17:55.113Z,8.97
2023-04-10T00:20:23.455Z,8.91
2023-04-10T00:22:50.401Z,8.97
2023-04-10T00:25:17.649Z,8.95
2023-04-10T00:27:44.715Z,8.93
2023-04-10T00:30:11.766Z,8.92
2023-04-10T00:32:38.777Z,8.93
2023-04-10T00:35:07.044Z,8.88
2023-04-10T00:37:33.899Z,8.84
2023-04-10T00:40:01.020Z,8.81
2023-04-10T00:42:28.077Z,8.84
2023-04-10T00:44:54.892Z,8.89
2023-04-10T00:47:22.353Z,8.86
2023-04-10T00:49:49.558Z,8.83
2023-04-10T00:52:16.684Z,8.82
2023-04-10T00:54:43.671Z,8.83
2023-04-10T00:57:11.940Z,8.88
2023-04-10T00:59:39.130Z,8.89
2023-04-10T01:02:06.192Z,8.83
2023-04-10T01:04:34.440Z,8.80
2023-04-10T01:07:21.645Z,8.82
2023-04-10T01:10:27.233Z,8.79
2023-04-10T01:13:15.547Z,8.78
2023-04-10T01:15:52.122Z,8.76
2023-04-10T01:18:41.107Z,8.76
2023-04-10T01:21:11.792Z,8.69
2023-04-10T01:24:03.767Z,8.63
2023-04-10T01:27:12.554Z,8.62
2023-04-10T01:29:50.380Z,8.64
2023-04-10T01:32:22.044Z,8.66
2023-04-10T01:34:55.717Z,8.64
2023-04-10T01:37:29.370Z,8.65
2023-04-10T01:40:03.369Z,8.57
2023-04-10T01:42:35.064Z,8.55
2023-04-10T01:45:08.091Z,8.51
2023-04-10T01:47:36.078Z,8.43
2023-04-10T01:50:04.368Z,8.45
2023-04-10T01:52:33.192Z,8.40
2023-04-10T01:55:17.648Z,8.41
2023-04-10T01:57:51.765Z,8.39
2023-04-10T02:00:19.349Z,8.36
2023-04-10T02:02:46.589Z,8.33
2023-04-10T02:05:16.865Z,8.28
2023-04-10T02:08:15.884Z,8.23
2023-04-10T02:10:57.687Z,8.14
2023-04-10T02:13:29.545Z,8.13
2023-04-10T02:16:04.072Z,8.12
2023-04-10T02:18:35.827Z,8.04
2023-04-10T02:21:03.953Z,8.06
2023-04-10T02:23:30.862Z,8.08
2023-04-10T02:26:08.002Z,8.05
2023-04-10T02:28:37.461Z,8.02
2023-04-10T02:31:07.751Z,8.03
2023-04-10T02:33:34.682Z,8.04
2023-04-10T02:36:02.122Z,8.04
2023-04-10T02:38:29.011Z,8.06
2023-04-10T02:40:56.191Z,8.06
2023-04-10T02:43:23.218Z,8.03
2023-04-10T02:45:50.485Z,8.00
2023-04-10T02:48:25.270Z,7.96
2023-04-10T02:50:58.682Z,7.97
2023-04-10T02:53:26.940Z,7.96
2023-04-10T02:55:57.641Z,7.98
2023-04-10T02:58:24.629Z,8.01
2023-04-10T03:00:54.745Z,8.01
2023-04-10T03:03:40.553Z,8.01
2023-04-10T03:06:09.548Z,7.96
2023-04-10T03:08:37.799Z,7.92
2023-04-10T03:11:07.489Z,7.90
2023-04-10T03:13:35.017Z,7.93
2023-04-10T03:16:01.833Z,7.97
2023-04-10T03:18:31.960Z,7.93
2023-04-10T03:20:58.829Z,7.90
2023-04-10T03:23:25.649Z,7.87
2023-04-10T03:25:56.137Z,7.84
2023-04-10T03:28:27.834Z,7.82
2023-04-10T03:30:54.686Z,7.78
2023-04-10T03:33:21.559Z,7.77
2023-04-10T03:35:48.590Z,7.75
2023-04-10T03:38:15.617Z,7.74
2023-04-10T03:40:42.485Z,7.74
2023-04-10T03:43:10.934Z,7.70
2023-04-10T03:45:38.407Z,7.68
2023-04-10T03:48:05.974Z,7.66
2023-04-10T03:50:41.012Z,7.64
2023-04-10T03:53:07.862Z,7.61
2023-04-10T03:55:35.379Z,7.58
2023-04-10T03:58:03.519Z,7.55
2023-04-10T04:00:31.756Z,7.54
2023-04-10T04:03:07.995Z,7.51
2023-04-10T04:06:13.569Z,7.48
2023-04-10T04:08:58.848Z,7.46
2023-04-10T04:11:44.078Z,7.43
2023-04-10T04:14:33.960Z,7.39
2023-04-10T04:17:17.141Z,7.38
2023-04-10T04:20:16.136Z,7.37
2023-04-10T04:23:08.316Z,7.32
2023-04-10T04:25:44.046Z,7.29
2023-04-10T04:28:30.266Z,7.27
2023-04-10T04:31:16.268Z,7.25
2023-04-10T04:34:02.237Z,7.24
2023-04-10T04:36:43.362Z,7.24
2023-04-10T04:39:18.786Z,7.23
2023-04-10T04:41:48.244Z,7.22
2023-04-10T04:44:33.633Z,7.22
2023-04-10T04:47:29.589Z,7.22
2023-04-10T04:50:15.522Z,7.25
2023-04-10T04:52:55.584Z,7.24
2023-04-10T04:55:40.962Z,7.23
2023-04-10T04:58:31.265Z,7.23
2023-04-10T05:01:14.036Z,7.23
2023-04-10T05:04:07.053Z,7.23
2023-04-10T05:06:54.495Z,7.24
2023-04-10T05:09:40.390Z,7.25
2023-04-10T05:12:22.979Z,7.27
2023-04-10T05:15:16.145Z,7.30
2023-04-10T05:18:03.535Z,7.33
2023-04-10T05:20:43.262Z,7.38
2023-04-10T05:23:18.627Z,7.42
2023-04-10T05:25:45.579Z,7.48
2023-04-10T05:28:35.483Z,7.54
2023-04-10T05:31:20.908Z,7.60
2023-04-10T05:33:52.542Z,7.67
2023-04-10T05:36:25.669Z,7.71
2023-04-10T05:39:10.032Z,7.75
2023-04-10T05:42:03.345Z,7.79
2023-04-10T05:44:45.858Z,7.84
2023-04-10T05:47:45.261Z,7.94
2023-04-10T05:50:21.571Z,8.01
2023-04-10T05:52:57.751Z,8.14
2023-04-10T05:56:03.273Z,8.23
2023-04-10T05:58:44.380Z,8.29
2023-04-10T06:01:21.351Z,8.35
2023-04-10T06:03:53.577Z,8.39
2023-04-10T06:06:22.399Z,8.46
2023-04-10T06:08:49.900Z,8.59
2023-04-10T06:11:17.070Z,8.67
2023-04-10T06:13:47.973Z,8.70
2023-04-10T06:16:16.454Z,8.80
2023-04-10T06:18:44.800Z,8.93
2023-04-10T06:21:11.663Z,8.98
2023-04-10T06:23:38.865Z,9.04
2023-04-10T06:26:06.662Z,9.10
2023-04-10T06:28:33.526Z,9.15
2023-04-10T06:31:04.250Z,9.22
2023-04-10T06:33:37.525Z,9.36
2023-04-10T06:36:07.479Z,9.43
2023-04-10T06:38:40.131Z,9.50
2023-04-10T06:41:09.329Z,9.57
2023-04-10T06:43:40.032Z,9.63
2023-04-10T06:46:07.248Z,9.67
2023-04-10T06:48:34.758Z,9.68
2023-04-10T06:51:01.651Z,9.73
2023-04-10T06:53:28.990Z,9.73
2023-04-10T06:55:56.899Z,9.73
2023-04-10T06:58:24.566Z,9.80
2023-04-10T07:00:51.623Z,9.83
2023-04-10T07:03:18.602Z,9.86
2023-04-10T07:05:45.566Z,9.92
2023-04-10T07:08:12.354Z,9.93
2023-04-10T07:10:39.189Z,10.02
2023-04-10T07:13:06.130Z,10.14
2023-04-10T07:15:32.945Z,10.19
2023-04-10T07:17:59.861Z,10.27
2023-04-10T07:20:28.069Z,10.32
2023-04-10T07:22:54.944Z,10.35
2023-04-10T07:25:21.956Z,10.40
2023-04-10T07:27:48.952Z,10.53
2023-04-10T07:30:16.009Z,10.61
2023-04-10T07:32:43.192Z,10.73
2023-04-10T07:35:10.436Z,10.86
2023-04-10T07:37:37.344Z,11.05
2023-04-10T07:40:04.483Z,11.27
2023-04-10T07:42:31.373Z,11.39
2023-04-10T07:44:58.163Z,11.49
2023-04-10T07:47:25.391Z,11.60
2023-04-10T07:49:52.349Z,11.77
2023-04-10T07:52:19.204Z,11.88
2023-04-10T07:54:46.409Z,11.99
2023-04-10T07:57:13.229Z,12.19
2023-04-10T07:59:40.083Z,12.42
2023-04-10T08:02:07.226Z,12.50
2023-04-10T08:04:34.400Z,12.47
2023-04-10T08:07:01.464Z,12.49
2023-04-10T08:09:28.445Z,12.50
2023-04-10T08:11:57.289Z,12.55
2023-04-10T08:14:24.184Z,12.65
2023-04-10T08:16:50.997Z,12.75
2023-04-10T08:19:17.790Z,12.80
2023-04-10T08:21:44.629Z,12.89
2023-04-10T08:24:11.455Z,12.97
2023-04-10T08:26:38.243Z,12.91
2023-04-10T08:29:05.244Z,12.85
2023-04-10T08:31:32.306Z,12.82
2023-04-10T08:33:59.762Z,12.79
2023-04-10T08:36:28.300Z,12.80
2023-04-10T08:38:55.250Z,12.85
2023-04-10T08:41:22.100Z,12.96
2023-04-10T08:43:50.127Z,13.06
2023-04-10T08:46:17.388Z,13.23
2023-04-10T08:49:03.008Z,13.40
2023-04-10T08:51:42.684Z,13.44
2023-04-10T08:54:26.025Z,13.50
2023-04-10T08:56:55.959Z,13.55
2023-04-10T08:59:23.124Z,13.48
2023-04-10T09:01:50.159Z,13.48
2023-04-10T09:04:18.063Z,13.50
2023-04-10T09:06:45.186Z,13.50
2023-04-10T09:09:12.082Z,13.52
2023-04-10T09:11:56.977Z,13.50
2023-04-10T09:14:28.267Z,13.56
2023-04-10T09:17:19.436Z,13.67
2023-04-10T09:19:50.183Z,13.81
2023-04-10T09:22:17.108Z,13.93
2023-04-10T09:24:47.294Z,13.88
2023-04-10T09:27:35.968Z,13.82
2023-04-10T09:30:04.525Z,13.77
2023-04-10T09:32:41.970Z,13.80
2023-04-10T09:35:12.574Z,13.84
2023-04-10T09:37:41.579Z,13.83
2023-04-10T09:40:26.765Z,13.86
2023-04-10T09:42:56.320Z,13.83
2023-04-10T09:45:23.152Z,13.88
2023-04-10T09:48:07.907Z,13.94
2023-04-10T09:50:41.009Z,13.96
2023-04-10T09:53:28.506Z,14.03
2023-04-10T09:55:56.536Z,14.04
2023-04-10T09:58:26.552Z,14.06
2023-04-10T10:00:53.983Z,14.12
2023-04-10T10:03:24.590Z,14.08
2023-04-10T10:05:52.078Z,14.17
2023-04-10T10:08:19.573Z,14.19
2023-04-10T10:10:53.588Z,14.25
2023-04-10T10:13:52.124Z,14.40
2023-04-10T10:16:28.869Z,14.50
2023-04-10T10:19:37.130Z,14.54
2023-04-10T10:22:05.929Z,14.46
2023-04-10T10:24:36.447Z,14.50
2023-04-10T10:27:09.565Z,14.52
2023-04-10T10:29:39.566Z,14.54
2023-04-10T10:32:08.310Z,14.65
2023-04-10T10:34:36.730Z,14.76
2023-04-10T10:37:06.078Z,14.92
2023-04-10T10:40:03.344Z,15.12
2023-04-10T10:43:19.640Z,15.37
2023-04-10T10:46:32.498Z,15.58
2023-04-10T10:49:00.706Z,15.77
2023-04-10T10:51:43.624Z,15.84
2023-04-10T10:54:34.745Z,15.91
2023-04-10T10:57:06.430Z,15.92
2023-04-10T10:59:56.744Z,15.85
2023-04-10T11:02:24.042Z,15.95
2023-04-10T11:04:51.762Z,16.05
2023-04-10T11:07:19.236Z,16.29
2023-04-10T11:09:54.833Z,16.46
2023-04-10T11:12:25.941Z,16.59
2023-04-10T11:15:03.023Z,16.79
2023-04-10T11:17:54.389Z,16.82
2023-04-10T11:20:28.657Z,16.82
2023-04-10T11:23:10.638Z,17.02
2023-04-10T11:25:52.782Z,17.24
2023-04-10T11:28:36.372Z,17.43
2023-04-10T11:31:23.410Z,17.53
2023-04-10T11:34:03.273Z,17.52
2023-04-10T11:36:32.092Z,17.61
2023-04-10T11:39:14.573Z,17.73
2023-04-10T11:41:44.485Z,17.98
2023-04-10T11:44:36.311Z,18.13
2023-04-10T11:47:03.322Z,18.07
2023-04-10T11:49:34.424Z,17.76
2023-04-10T11:52:01.455Z,17.54
2023-04-10T11:54:29.691Z,17.41
2023-04-10T11:57:09.186Z,17.26
2023-04-10T11:59:36.181Z,17.15
2023-04-10T12:02:10.592Z,16.99
2023-04-10T12:04:38.775Z,16.93
2023-04-10T12:07:06.105Z,17.03
2023-04-10T12:09:33.058Z,17.14
2023-04-10T12:12:05.646Z,17.16
2023-04-10T12:14:41.262Z,17.21
2023-04-10T12:17:11.461Z,17.28
2023-04-10T12:19:39.801Z,17.39
2023-04-10T12:22:06.835Z,17.47
2023-04-10T12:24:53.354Z,17.52
2023-04-10T12:27:28.883Z,17.58
2023-04-10T12:29:58.901Z,17.60
2023-04-10T12:32:27.639Z,17.50
2023-04-10T12:34:58.264Z,17.49
2023-04-10T12:37:46.598Z,17.50
2023-04-10T12:40:14.348Z,17.49
2023-04-10T12:42:42.567Z,17.53
2023-04-10T12:45:13.515Z,17.45
2023-04-10T12:47:53.708Z,17.40
2023-04-10T12:50:21.452Z,17.35
2023-04-10T12:53:11.810Z,17.27
2023-04-10T12:55:38.862Z,17.22
2023-04-10T12:58:21.317Z,17.16
2023-04-10T13:00:49.253Z,17.14
2023-04-10T13:03:16.413Z,17.10
2023-04-10T13:05:44.706Z,17.05
2023-04-10T13:08:11.591Z,16.92
2023-04-10T13:10:38.600Z,16.87
2023-04-10T13:13:07.137Z,16.82
2023-04-10T13:15:34.812Z,16.75
2023-04-10T13:18:03.594Z,16.71
2023-04-10T13:20:32.088Z,16.67
2023-04-10T13:22:58.900Z,16.65
2023-04-10T13:25:27.662Z,16.66
2023-04-10T13:27:54.437Z,16.60
2023-04-10T13:30:21.286Z,16.61
2023-04-10T13:32:48.243Z,16.53
2023-04-10T13:35:15.345Z,16.52
2023-04-10T13:37:42.224Z,16.50
2023-04-10T13:40:10.057Z,16.51
2023-04-10T13:42:39.300Z,16.59
2023-04-10T13:45:07.938Z,16.63
2023-04-10T13:47:34.829Z,16.62
2023-04-10T13:50:01.670Z,16.63
2023-04-10T13:52:28.570Z,16.66
2023-04-10T13:54:55.492Z,16.62
2023-04-10T13:57:22.375Z,16.76
2023-04-10T13:59:49.233Z,16.83
2023-04-10T14:02:16.566Z,16.87
2023-04-10T14:04:46.118Z,16.97
2023-04-10T14:07:13.064Z,17.06
2023-04-10T14:09:40.062Z,17.11
2023-04-10T14:12:07.188Z,17.11
2023-04-10T14:14:34.229Z,17.18
2023-04-10T14:17:04.298Z,17.15
2023-04-10T14:19:31.630Z,17.06
2023-04-10T14:21:58.427Z,17.03
2023-04-10T14:24:25.345Z,16.95
2023-04-10T14:26:53.877Z,16.89
2023-04-10T14:29:25.406Z,16.72
2023-04-10T14:32:00.313Z,16.34
2023-04-10T14:34:27.248Z,16.12
2023-04-10T14:36:55.986Z,15.99
2023-04-10T14:39:24.659Z,15.80
2023-04-10T14:41:51.800Z,15.55
2023-04-10T14:44:19.007Z,15.24
2023-04-10T14:46:45.959Z,14.91
2023-04-10T14:49:15.073Z,14.58
2023-04-10T14:51:46.288Z,14.31
2023-04-10T14:54:13.116Z,13.97
2023-04-10T14:56:40.138Z,13.76
2023-04-10T14:59:07.146Z,13.60
2023-04-10T15:01:35.929Z,13.52
2023-04-10T15:04:03.034Z,13.43
2023-04-10T15:06:32.337Z,13.42
2023-04-10T15:08:59.378Z,13.41
2023-04-10T15:11:26.567Z,13.37
2023-04-10T15:13:53.641Z,13.29
2023-04-10T15:16:21.142Z,13.24
2023-04-10T15:18:49.390Z,13.15
2023-04-10T15:21:17.452Z,13.14
2023-04-10T15:23:44.883Z,13.19
2023-04-10T15:26:14.080Z,13.31
2023-04-10T15:28:45.899Z,13.31
2023-04-10T15:31:12.856Z,13.27
2023-04-10T15:33:40.073Z,13.24
2023-04-10T15:36:08.572Z,13.27
2023-04-10T15:38:36.373Z,13.37
2023-04-10T15:41:13.469Z,13.47
2023-04-10T15:43:40.379Z,13.39
2023-04-10T15:46:07.298Z,13.32
2023-04-10T15:48:34.432Z,13.32
2023-04-10T15:51:07.729Z,13.38
2023-04-10T15:53:35.776Z,13.41
2023-04-10T15:56:07.049Z,13.47
2023-04-10T15:58:34.603Z,13.52
2023-04-10T16:01:02.133Z,13.60
2023-04-10T16:03:30.425Z,13.64
2023-04-10T16:05:58.516Z,13.71
2023-04-10T16:08:26.358Z,13.76
2023-04-10T16:10:54.031Z,13.79
2023-04-10T16:13:20.923Z,13.84
2023-04-10T16:15:49.190Z,13.86
2023-04-10T16:18:16.195Z,13.91
2023-04-10T16:20:43.539Z,14.03
2023-04-10T16:23:10.597Z,14.13
2023-04-10T16:25:37.516Z,14.18
2023-04-10T16:28:07.916Z,14.22
2023-04-10T16:30:35.889Z,14.22
2023-04-10T16:33:04.233Z,14.24
2023-04-10T16:35:31.827Z,14.28
2023-04-10T16:37:58.769Z,14.25
2023-04-10T16:40:32.381Z,14.28
2023-04-10T16:43:02.808Z,14.28
2023-04-10T16:45:29.878Z,14.25
2023-04-10T16:47:56.966Z,14.29
2023-04-10T16:50:23.995Z,14.29
2023-04-10T16:52:50.901Z,14.28
2023-04-10T16:55:17.984Z,14.10
2023-04-10T16:57:45.880Z,13.67
2023-04-10T17:00:13.443Z,13.20
2023-04-10T17:02:40.407Z,12.70
2023-04-10T17:05:07.440Z,12.26
2023-04-10T17:07:34.501Z,11.93
2023-04-10T17:10:01.487Z,11.66
2023-04-10T17:12:28.413Z,11.49
2023-04-10T17:14:55.365Z,11.37
2023-04-10T17:17:22.359Z,11.28
2023-04-10T17:19:49.347Z,11.20
2023-04-10T17:22:16.315Z,11.14
2023-04-10T17:24:46.644Z,11.08
2023-04-10T17:27:14.095Z,11.03
2023-04-10T17:29:41.455Z,11.00
2023-04-10T17:32:09.236Z,10.95
2023-04-10T17:34:36.280Z,10.93
2023-04-10T17:37:03.148Z,10.90
2023-04-10T17:39:30.175Z,10.87
2023-04-10T17:41:57.213Z,10.88
2023-04-10T17:44:24.340Z,10.85
2023-04-10T17:46:53.416Z,10.85
2023-04-10T17:49:21.911Z,10.89
2023-04-10T17:51:49.568Z,10.88
2023-04-10T17:54:16.731Z,10.89
2023-04-10T17:56:43.681Z,10.89
2023-04-10T17:59:10.748Z,10.86
2023-04-10T18:01:37.808Z,10.88
2023-04-10T18:04:05.138Z,10.88
2023-04-10T18:06:32.223Z,10.87
2023-04-10T18:08:59.210Z,10.83
2023-04-10T18:11:26.146Z,10.78
2023-04-10T18:13:52.999Z,10.80
2023-04-10T18:16:20.103Z,10.81
2023-04-10T18:18:47.466Z,10.82
2023-04-10T18:21:15.390Z,10.77
2023-04-10T18:23:42.254Z,10.71
2023-04-10T18:26:09.285Z,10.71
2023-04-10T18:28:37.751Z,10.71
2023-04-10T18:31:04.914Z,10.73
2023-04-10T18:33:31.794Z,10.70
2023-04-10T18:35:59.107Z,10.68
2023-04-10T18:38:26.954Z,10.69
2023-04-10T18:40:57.981Z,10.70
2023-04-10T18:43:27.360Z,10.70
2023-04-10T18:45:55.175Z,10.66
2023-04-10T18:48:22.464Z,10.63
2023-04-10T18:50:55.690Z,10.62
2023-04-10T18:53:22.657Z,10.62
2023-04-10T18:55:54.141Z,10.64
2023-04-10T18:58:22.668Z,10.62
2023-04-10T19:00:49.633Z,10.58
2023-04-10T19:03:16.784Z,10.55
2023-04-10T19:05:43.850Z,10.54
2023-04-10T19:08:14.618Z,10.50
2023-04-10T19:10:42.960Z,10.47
2023-04-10T19:13:12.042Z,10.45
2023-04-10T19:15:47.840Z,10.38
2023-04-10T19:18:16.306Z,10.36
2023-04-10T19:20:52.806Z,10.35
2023-04-10T19:23:21.160Z,10.32
2023-04-10T19:25:54.956Z,10.37
2023-04-10T19:28:23.510Z,10.44
2023-04-10T19:30:50.587Z,10.48
2023-04-10T19:33:17.494Z,10.49
2023-04-10T19:35:44.612Z,10.46
2023-04-10T19:38:11.669Z,10.51
2023-04-10T19:40:38.539Z,10.53
2023-04-10T19:43:05.329Z,10.54
2023-04-10T19:45:35.539Z,10.51
2023-04-10T19:48:02.403Z,10.52
2023-04-10T19:50:33.000Z,10.48
2023-04-10T19:52:59.888Z,10.47
2023-04-10T19:55:26.922Z,10.47
2023-04-10T19:57:54.737Z,10.43
2023-04-10T20:00:21.678Z,10.43
2023-04-10T20:02:48.814Z,10.43
2023-04-10T20:05:15.792Z,10.43
2023-04-10T20:07:42.699Z,10.41
2023-04-10T20:10:09.875Z,10.40
2023-04-10T20:12:36.703Z,10.43
2023-04-10T20:15:05.017Z,10.44
2023-04-10T20:17:31.868Z,10.47
2023-04-10T20:19:58.755Z,10.49
2023-04-10T20:22:25.696Z,10.48
2023-04-10T20:24:52.527Z,10.46
2023-04-10T20:27:19.450Z,10.44
2023-04-10T20:29:46.241Z,10.44
2023-04-10T20:32:13.081Z,10.44
2023-04-10T20:34:39.981Z,10.45
2023-04-10T20:37:06.967Z,10.45
2023-04-10T20:39:33.858Z,10.42
2023-04-10T20:42:00.718Z,10.44
2023-04-10T20:44:27.505Z,10.44
2023-04-10T20:46:54.473Z,10.44
2023-04-10T20:49:21.327Z,10.49
2023-04-10T20:51:48.189Z,10.50
2023-04-10T20:54:15.047Z,10.52
2023-04-10T20:56:44.182Z,10.51
2023-04-10T20:59:11.528Z,10.51
2023-04-10T21:01:38.829Z,10.47
2023-04-10T21:04:06.294Z,10.42
2023-04-10T21:06:33.713Z,10.38
2023-04-10T21:09:02.110Z,10.32
2023-04-10T21:11:28.960Z,10.31
2023-04-10T21:13:55.825Z,10.30
2023-04-10T21:16:22.674Z,10.28
2023-04-10T21:18:49.650Z,10.24
2023-04-10T21:21:16.513Z,10.24
2023-04-10T21:23:43.333Z,10.22
2023-04-10T21:26:10.604Z,10.19
2023-04-10T21:28:37.422Z,10.16
2023-04-10T21:31:04.736Z,10.12
2023-04-10T21:33:32.732Z,10.06
2023-04-10T21:35:59.709Z,10.07
2023-04-10T21:38:26.680Z,10.10
2023-04-10T21:40:54.422Z,10.08
2023-04-10T21:43:21.957Z,10.05
2023-04-10T21:45:49.430Z,9.98
2023-04-10T21:48:16.590Z,9.98
2023-04-10T21:50:43.501Z,10.02
2023-04-10T21:53:10.462Z,10.09
2023-04-10T21:55:37.430Z,10.12
2023-04-10T21:58:04.921Z,10.18
2023-04-10T22:00:33.966Z,10.18
2023-04-10T22:03:01.130Z,10.18
2023-04-10T22:05:28.170Z,10.21
2023-04-10T22:07:55.809Z,10.18
2023-04-10T22:10:22.706Z,10.16
2023-04-10T22:12:49.699Z,10.09
2023-04-10T22:15:17.239Z,10.06
2023-04-10T22:17:44.140Z,10.06
2023-04-10T22:20:11.330Z,10.08
2023-04-10T22:22:38.254Z,10.12
2023-04-10T22:25:06.030Z,10.12
2023-04-10T22:27:33.433Z,10.17
2023-04-10T22:30:03.864Z,10.19
2023-04-10T22:32:31.653Z,10.20
2023-04-10T22:34:59.724Z,10.21
2023-04-10T22:37:27.774Z,10.21
2023-04-10T22:39:57.225Z,10.23
2023-04-10T22:42:24.219Z,10.24
2023-04-10T22:44:51.137Z,10.26
2023-04-10T22:47:18.043Z,10.27
2023-04-10T22:49:45.289Z,10.27
2023-04-10T22:52:13.496Z,10.26
2023-04-10T22:54:40.329Z,10.26
2023-04-10T22:57:07.652Z,10.25
2023-04-10T22:59:38.260Z,10.27
2023-04-10T23:02:05.353Z,10.30
2023-04-10T23:04:32.525Z,10.30
2023-04-10T23:06:59.475Z,10.31
2023-04-10T23:09:26.432Z,10.32
2023-04-10T23:11:53.257Z,10.33
2023-04-10T23:14:20.582Z,10.33
2023-04-10T23:16:47.479Z,10.29
2023-04-10T23:19:14.363Z,10.27
2023-04-10T23:21:41.521Z,10.26
2023-04-10T23:24:08.470Z,10.25
2023-04-10T23:26:35.355Z,10.24
2023-04-10T23:29:02.191Z,10.21
2023-04-10T23:31:29.147Z,10.19
2023-04-10T23:33:55.944Z,10.19
2023-04-10T23:36:22.821Z,10.18
2023-04-10T23:38:49.628Z,10.15
2023-04-10T23:41:16.544Z,10.11
2023-04-10T23:43:44.252Z,10.07
2023-04-10T23:46:11.163Z,10.01
2023-04-10T23:48:37.987Z,9.96
2023-04-10T23:51:07.016Z,9.94
2023-04-10T23:53:35.273Z,9.93
2023-04-10T23:56:02.109Z,9.91
2023-04-10T23:58:28.986Z,9.91
